createdAt,value
2017-12-01T00:01:52.015Z,25.10
2017-12-01T00:04:20.436Z,22.87
2017-12-01T00:06:48.894Z,22.20
2017-12-01T00:09:17.367Z,21.77
2017-12-01T00:11:46.107Z,25.90
2017-12-01T00:16:50.075Z,25.07
2017-12-01T00:19:18.497Z,19.70
2017-12-01T00:21:46.912Z,20.10
2017-12-01T00:24:16.125Z,21.30
2017-12-01T00:26:44.501Z,23.70
2017-12-01T00:29:12.984Z,20.90
2017-12-01T00:31:41.767Z,19.90
2017-12-01T00:34:10.161Z,25.60
2017-12-01T00:36:38.581Z,25.27
2017-12-01T00:39:07.063Z,24.63
2017-12-01T00:41:35.497Z,23.60
2017-12-01T00:44:03.919Z,27.57
2017-12-01T00:46:32.455Z,24.90
2017-12-01T00:49:00.925Z,25.30
2017-12-01T00:51:29.355Z,24.10
2017-12-01T00:53:58.263Z,25.40
2017-12-01T00:56:26.694Z,25.67
2017-12-01T00:58:55.169Z,22.40
2017-12-01T01:01:23.660Z,25.30
2017-12-01T01:03:52.112Z,23.73
2017-12-01T01:06:21.372Z,21.53
2017-12-01T01:08:50.059Z,22.43
2017-12-01T01:11:18.527Z,21.40
2017-12-01T01:13:47.138Z,20.30
2017-12-01T01:16:15.739Z,18.77
2017-12-01T01:18:44.220Z,20.93
2017-12-01T01:21:13.481Z,21.70
2017-12-01T01:23:41.989Z,21.50
2017-12-01T01:26:10.396Z,16.77
2017-12-01T01:28:38.829Z,20.13
2017-12-01T01:31:07.841Z,20.00
2017-12-01T01:33:36.283Z,23.37
2017-12-01T01:36:06.129Z,25.00
2017-12-01T01:38:35.346Z,24.13
2017-12-01T01:41:04.590Z,25.90
2017-12-01T01:43:33.068Z,22.00
2017-12-01T01:46:01.726Z,21.73
2017-12-01T01:48:30.178Z,24.30
2017-12-01T01:50:58.624Z,21.80
2017-12-01T01:53:27.110Z,24.73
2017-12-01T01:55:55.997Z,20.57
2017-12-01T01:58:24.433Z,22.10
2017-12-01T02:00:52.945Z,24.30
2017-12-01T02:03:21.404Z,20.50
2017-12-01T02:05:49.828Z,21.90
2017-12-01T02:08:18.727Z,21.57
2017-12-01T02:10:47.178Z,19.50
2017-12-01T02:13:15.578Z,19.17
2017-12-01T02:15:46.460Z,18.20
2017-12-01T02:18:15.697Z,23.30
2017-12-01T02:20:44.194Z,21.00
2017-12-01T02:23:12.710Z,22.33
2017-12-01T02:25:41.939Z,19.60
2017-12-01T02:28:10.389Z,19.13
2017-12-01T02:30:39.693Z,15.77
2017-12-01T02:33:08.964Z,18.67
2017-12-01T02:35:37.408Z,19.37
2017-12-01T02:38:05.902Z,17.60
2017-12-01T02:40:34.350Z,18.40
2017-12-01T02:43:02.797Z,20.43
2017-12-01T02:45:31.797Z,18.97
2017-12-01T02:48:01.035Z,19.07
2017-12-01T02:50:29.484Z,19.90
2017-12-01T02:52:59.082Z,21.00
2017-12-01T02:55:28.299Z,21.53
2017-12-01T02:57:56.858Z,22.67
2017-12-01T03:00:25.560Z,21.60
2017-12-01T03:02:54.837Z,21.03
2017-12-01T03:05:23.294Z,20.17
2017-12-01T03:07:52.131Z,22.57
2017-12-01T03:10:21.424Z,19.33
2017-12-01T03:12:50.248Z,21.43
2017-12-01T03:15:18.845Z,21.17
2017-12-01T03:17:47.596Z,21.20
2017-12-01T03:20:16.855Z,21.03
2017-12-01T03:22:45.530Z,18.07
2017-12-01T03:25:14.878Z,18.90
2017-12-01T03:27:44.114Z,23.17
2017-12-01T03:30:12.715Z,24.07
2017-12-01T03:32:41.181Z,26.77
2017-12-01T03:35:09.777Z,26.60
2017-12-01T03:37:38.740Z,28.20
2017-12-01T03:40:07.911Z,27.50
2017-12-01T03:42:37.188Z,25.93
2017-12-01T03:45:05.710Z,31.03
2017-12-01T03:47:34.189Z,29.13
2017-12-01T03:50:03.438Z,25.70
2017-12-01T03:52:33.159Z,23.73
2017-12-01T03:55:01.609Z,25.50
2017-12-01T03:57:30.066Z,24.03
2017-12-01T03:59:58.904Z,26.00
2017-12-01T04:02:27.415Z,20.17
2017-12-01T04:04:56.632Z,15.97
2017-12-01T04:07:25.140Z,20.63
2017-12-01T04:09:53.608Z,24.93
2017-12-01T04:12:22.074Z,24.33
2017-12-01T04:14:50.852Z,22.97
2017-12-01T04:17:20.115Z,24.20
2017-12-01T04:19:48.742Z,25.10
2017-12-01T04:22:17.568Z,22.07
2017-12-01T04:24:46.045Z,24.20
2017-12-01T04:27:14.509Z,25.50
2017-12-01T04:29:43.603Z,25.50
2017-12-01T04:32:12.056Z,26.60
2017-12-01T04:34:40.549Z,25.97
2017-12-01T04:37:09.276Z,25.60
2017-12-01T04:39:37.740Z,11.50
2017-12-01T04:42:06.231Z,21.33
2017-12-01T04:44:34.719Z,17.53
2017-12-01T04:47:03.185Z,26.27
2017-12-01T04:49:31.682Z,24.13
2017-12-01T04:52:00.276Z,26.50
2017-12-01T04:54:28.721Z,23.27
2017-12-01T04:56:57.236Z,27.40
2017-12-01T04:59:26.862Z,24.00
2017-12-01T05:01:55.604Z,29.60
2017-12-01T05:04:24.100Z,25.47
2017-12-01T05:06:52.940Z,19.87
2017-12-01T05:09:22.154Z,20.90
2017-12-01T05:11:50.639Z,18.87
2017-12-01T05:14:19.192Z,16.47
2017-12-01T05:16:47.669Z,17.77
2017-12-01T05:19:16.120Z,16.03
2017-12-01T05:21:45.245Z,12.40
2017-12-01T05:24:14.508Z,14.30
2017-12-01T05:26:43.005Z,13.30
2017-12-01T05:29:11.928Z,12.43
2017-12-01T05:31:41.171Z,13.43
2017-12-01T05:34:09.643Z,14.53
2017-12-01T05:36:38.245Z,12.77
2017-12-01T05:39:06.795Z,14.37
2017-12-01T05:41:35.258Z,13.77
2017-12-01T05:44:04.614Z,15.00
2017-12-01T05:46:33.085Z,16.57
2017-12-01T05:49:01.520Z,15.20
2017-12-01T05:51:30.992Z,15.00
2017-12-01T05:53:59.450Z,13.37
2017-12-01T05:56:27.900Z,11.80
2017-12-01T05:58:56.527Z,12.33
2017-12-01T06:01:24.988Z,13.30
2017-12-01T06:03:54.415Z,11.70
2017-12-01T06:06:22.898Z,18.67
2017-12-01T06:08:51.366Z,18.83
2017-12-01T06:11:19.835Z,11.23
2017-12-01T06:13:48.417Z,12.30
2017-12-01T06:16:16.872Z,9.93
2017-12-01T06:18:46.099Z,15.50
2017-12-01T06:21:14.620Z,15.03
2017-12-01T06:23:43.730Z,20.80
2017-12-01T06:26:12.975Z,13.17
2017-12-01T06:28:41.655Z,21.90
2017-12-01T06:31:10.134Z,14.83
2017-12-01T06:33:38.678Z,12.67
2017-12-01T06:36:08.066Z,18.10
2017-12-01T06:38:36.566Z,11.67
2017-12-01T06:41:05.982Z,24.80
2017-12-01T06:43:34.506Z,23.47
2017-12-01T06:46:02.968Z,24.53
2017-12-01T06:48:31.432Z,19.83
2017-12-01T06:50:59.971Z,21.43
2017-12-01T06:53:28.444Z,9.00
2017-12-01T06:55:56.904Z,9.47
2017-12-01T06:58:25.520Z,12.10
2017-12-01T07:00:54.020Z,20.37
2017-12-01T07:03:22.553Z,22.73
2017-12-01T07:05:51.326Z,20.50
2017-12-01T07:08:20.644Z,13.50
2017-12-01T07:10:49.024Z,14.83
2017-12-01T07:13:17.551Z,6.27
2017-12-01T07:15:46.720Z,5.20
2017-12-01T07:18:15.138Z,17.03
2017-12-01T07:20:43.828Z,6.20
2017-12-01T07:23:13.023Z,20.43
2017-12-01T07:25:41.782Z,23.10
2017-12-01T07:28:10.491Z,7.30
2017-12-01T07:30:39.703Z,22.70
2017-12-01T07:33:08.141Z,15.47
2017-12-01T07:35:36.967Z,10.03
2017-12-01T07:38:05.441Z,23.47
2017-12-01T07:40:34.668Z,17.17
2017-12-01T07:43:04.163Z,16.33
2017-12-01T07:45:33.100Z,9.90
2017-12-01T07:48:01.525Z,12.60
2017-12-01T07:50:30.111Z,11.53
2017-12-01T07:52:58.748Z,19.10
2017-12-01T07:55:27.223Z,23.30
2017-12-01T07:57:55.783Z,29.37
2017-12-01T08:00:24.241Z,27.03
2017-12-01T08:02:52.702Z,31.27
2017-12-01T08:05:21.961Z,25.60
2017-12-01T08:07:50.620Z,19.67
2017-12-01T08:10:19.054Z,14.47
2017-12-01T08:12:47.681Z,17.27
2017-12-01T08:15:16.152Z,20.10
2017-12-01T08:17:44.644Z,16.83
2017-12-01T08:20:19.205Z,28.07
2017-12-01T08:22:52.584Z,21.40
2017-12-01T08:25:36.846Z,18.80
2017-12-01T08:28:05.750Z,13.37
2017-12-01T08:30:34.267Z,12.47
2017-12-01T08:33:03.682Z,14.43
2017-12-01T08:35:32.448Z,16.00
2017-12-01T08:38:01.653Z,25.80
2017-12-01T08:40:30.113Z,13.13
2017-12-01T08:42:58.595Z,11.70
2017-12-01T08:45:27.050Z,12.83
2017-12-01T08:47:55.607Z,13.67
2017-12-01T08:50:24.062Z,17.40
2017-12-01T08:52:52.495Z,14.40
2017-12-01T08:55:21.136Z,21.50
2017-12-01T08:57:49.558Z,23.63
2017-12-01T09:00:18.025Z,18.73
2017-12-01T09:02:46.566Z,17.40
2017-12-01T09:05:15.041Z,11.57
2017-12-01T09:07:44.289Z,21.37
2017-12-01T09:10:12.876Z,8.50
2017-12-01T09:12:41.305Z,14.20
2017-12-01T09:15:10.563Z,9.70
2017-12-01T09:17:39.376Z,7.27
2017-12-01T09:20:08.005Z,12.00
2017-12-01T09:22:36.453Z,14.23
2017-12-01T09:25:06.041Z,14.83
2017-12-01T09:27:34.499Z,12.40
2017-12-01T09:30:03.191Z,13.40
2017-12-01T09:32:31.841Z,12.00
2017-12-01T09:35:00.333Z,8.03
2017-12-01T09:37:28.814Z,8.20
2017-12-01T09:39:57.472Z,4.90
2017-12-01T09:42:26.005Z,13.37
2017-12-01T09:44:54.645Z,8.83
2017-12-01T09:47:23.724Z,4.73
2017-12-01T09:49:53.099Z,6.17
2017-12-01T09:52:21.519Z,13.20
2017-12-01T09:54:51.010Z,11.57
2017-12-01T09:57:21.155Z,11.63
2017-12-01T09:59:49.613Z,4.80
2017-12-01T10:02:18.850Z,14.00
2017-12-01T10:04:47.335Z,11.57
2017-12-01T10:07:15.779Z,6.33
2017-12-01T10:09:44.678Z,9.50
2017-12-01T10:12:13.089Z,5.93
2017-12-01T10:14:41.529Z,4.97
2017-12-01T10:17:10.932Z,4.57
2017-12-01T10:19:40.864Z,8.33
2017-12-01T10:22:09.335Z,11.23
2017-12-01T10:24:37.980Z,8.73
2017-12-01T10:27:07.386Z,6.10
2017-12-01T10:29:37.290Z,10.50
2017-12-01T10:32:06.328Z,12.50
2017-12-01T10:34:36.135Z,12.80
2017-12-01T10:37:05.512Z,10.13
2017-12-01T10:39:34.149Z,7.80
2017-12-01T10:42:03.458Z,7.57
2017-12-01T10:44:31.986Z,8.27
2017-12-01T10:47:00.849Z,7.57
2017-12-01T10:49:29.284Z,11.10
2017-12-01T10:51:57.739Z,14.23
2017-12-01T10:54:27.484Z,9.60
2017-12-01T10:56:55.895Z,9.87
2017-12-01T10:59:24.481Z,6.70
2017-12-01T11:01:53.231Z,8.57
2017-12-01T11:04:21.654Z,10.37
2017-12-01T11:06:50.103Z,11.13
2017-12-01T11:09:19.482Z,5.90
2017-12-01T11:11:47.951Z,7.73
2017-12-01T11:14:16.353Z,4.70
2017-12-01T11:16:44.843Z,2.53
2017-12-01T11:19:13.287Z,4.53
2017-12-01T11:21:42.501Z,8.70
2017-12-01T11:24:11.195Z,9.90
2017-12-01T11:26:39.665Z,4.20
2017-12-01T11:29:08.884Z,6.47
2017-12-01T11:31:37.384Z,11.27
2017-12-01T11:34:05.938Z,6.37
2017-12-01T11:36:34.452Z,14.50
2017-12-01T11:39:02.997Z,15.30
2017-12-01T11:41:31.757Z,11.50
2017-12-01T11:44:00.215Z,13.67
2017-12-01T11:46:28.852Z,12.37
2017-12-01T11:48:57.440Z,13.30
2017-12-01T11:51:26.737Z,12.90
2017-12-01T11:53:55.239Z,15.50
2017-12-01T11:56:23.824Z,13.47
2017-12-01T11:58:53.096Z,8.00
2017-12-01T12:01:24.972Z,7.07
2017-12-01T12:03:54.151Z,18.20
2017-12-01T12:06:22.655Z,13.90
2017-12-01T12:08:51.404Z,10.60
2017-12-01T12:11:20.681Z,17.77
2017-12-01T12:13:53.092Z,10.87
2017-12-01T12:16:21.597Z,11.67
2017-12-01T12:18:51.999Z,11.40
2017-12-01T12:21:20.593Z,14.60
2017-12-01T12:23:49.982Z,14.00
2017-12-01T12:26:18.530Z,16.37
2017-12-01T12:28:47.171Z,14.17
2017-12-01T12:31:15.673Z,17.43
2017-12-01T12:33:44.175Z,15.67
2017-12-01T12:36:13.818Z,17.20
2017-12-01T12:38:43.108Z,15.60
2017-12-01T12:41:13.254Z,12.23
2017-12-01T12:43:42.853Z,16.40
2017-12-01T12:46:11.330Z,16.90
2017-12-01T12:48:40.381Z,13.37
2017-12-01T12:51:08.917Z,16.80
2017-12-01T12:53:38.352Z,15.40
2017-12-01T12:56:06.827Z,13.50
2017-12-01T12:58:35.576Z,14.80
2017-12-01T13:01:06.671Z,16.23
2017-12-01T13:03:35.427Z,17.37
2017-12-01T13:06:04.127Z,9.73
2017-12-01T13:08:32.683Z,11.60
2017-12-01T13:11:01.197Z,6.80
2017-12-01T13:13:29.797Z,4.40
2017-12-01T13:15:58.305Z,7.67
2017-12-01T13:18:27.364Z,10.40
2017-12-01T13:20:56.675Z,16.20
2017-12-01T13:23:25.953Z,8.07
2017-12-01T13:25:54.678Z,14.50
2017-12-01T13:28:24.143Z,14.17
2017-12-01T13:30:52.673Z,19.17
2017-12-01T13:33:21.848Z,12.13
2017-12-01T13:35:50.731Z,18.00
2017-12-01T13:38:19.549Z,17.40
2017-12-01T13:40:48.847Z,16.00
2017-12-01T13:43:18.881Z,11.40
2017-12-01T13:45:48.120Z,14.87
2017-12-01T13:48:16.605Z,13.23
2017-12-01T13:50:45.377Z,15.67
2017-12-01T13:53:13.893Z,11.30
2017-12-01T13:55:42.461Z,6.77
2017-12-01T13:58:11.034Z,7.90
2017-12-01T14:00:39.520Z,11.00
2017-12-01T14:03:07.968Z,15.93
2017-12-01T14:05:37.562Z,16.67
2017-12-01T14:08:05.999Z,9.40
2017-12-01T14:10:34.417Z,5.80
2017-12-01T14:13:03.779Z,11.40
2017-12-01T14:15:32.416Z,13.17
2017-12-01T14:18:01.102Z,6.77
2017-12-01T14:20:29.614Z,5.50
2017-12-01T14:22:58.021Z,11.00
2017-12-01T14:25:26.436Z,10.20
2017-12-01T14:27:55.801Z,4.90
2017-12-01T14:30:24.256Z,4.93
2017-12-01T14:32:52.688Z,10.30
2017-12-01T14:35:22.045Z,9.03
2017-12-01T14:37:51.265Z,9.30
2017-12-01T14:40:20.893Z,10.33
2017-12-01T14:42:49.492Z,8.70
2017-12-01T14:45:19.237Z,9.47
2017-12-01T14:47:47.689Z,5.37
2017-12-01T14:50:16.910Z,8.63
2017-12-01T14:52:45.318Z,8.50
2017-12-01T14:55:13.709Z,10.10
2017-12-01T14:57:43.868Z,7.73
2017-12-01T15:00:12.492Z,7.37
2017-12-01T15:02:40.935Z,5.07
2017-12-01T15:05:10.947Z,5.37
2017-12-01T15:07:39.378Z,7.60
2017-12-01T15:10:07.809Z,8.70
2017-12-01T15:12:36.408Z,10.73
2017-12-01T15:15:04.829Z,12.40
2017-12-01T15:17:33.293Z,13.73
2017-12-01T15:20:01.958Z,14.60
2017-12-01T15:22:30.380Z,14.17
2017-12-01T15:24:58.800Z,15.10
2017-12-01T15:27:27.569Z,16.20
2017-12-01T15:29:57.132Z,13.87
2017-12-01T15:32:25.586Z,15.53
2017-12-01T15:34:54.339Z,16.10
2017-12-01T15:37:23.574Z,14.70
2017-12-01T15:39:53.000Z,14.90
2017-12-01T15:42:21.978Z,13.53
2017-12-01T15:44:50.393Z,13.53
2017-12-01T15:47:18.852Z,12.07
2017-12-01T15:49:47.529Z,11.70
2017-12-01T15:52:16.023Z,14.90
2017-12-01T15:54:44.797Z,16.60
2017-12-01T15:57:13.315Z,16.40
2017-12-01T15:59:41.756Z,16.60
2017-12-01T16:02:10.221Z,17.63
2017-12-01T16:04:38.893Z,17.93
2017-12-01T16:07:07.426Z,17.40
2017-12-01T16:09:35.865Z,15.93
2017-12-01T16:12:05.259Z,21.47
2017-12-01T16:14:33.749Z,20.00
2017-12-01T16:17:02.230Z,18.47
2017-12-01T16:19:30.880Z,19.00
2017-12-01T16:21:59.329Z,19.53
2017-12-01T16:24:27.803Z,22.67
2017-12-01T16:26:56.393Z,20.57
2017-12-01T16:29:24.880Z,19.80
2017-12-01T16:31:53.498Z,21.07
2017-12-01T16:34:22.918Z,17.50
2017-12-01T16:36:52.169Z,17.33
2017-12-01T16:39:20.656Z,20.17
2017-12-01T16:44:25.098Z,17.40
2017-12-01T16:46:53.640Z,16.47
2017-12-01T16:49:22.101Z,15.37
2017-12-01T16:51:50.546Z,15.10
2017-12-01T16:54:19.280Z,20.13
2017-12-01T16:56:47.820Z,16.87
2017-12-01T16:59:16.296Z,18.00
2017-12-01T17:01:45.017Z,16.03
2017-12-01T17:04:13.504Z,8.57
2017-12-01T17:06:41.989Z,10.13
2017-12-01T17:09:10.650Z,17.87
2017-12-01T17:11:39.893Z,19.30
2017-12-01T17:14:08.381Z,19.73
2017-12-01T17:16:37.168Z,21.17
2017-12-01T17:19:05.648Z,13.40
2017-12-01T17:21:34.153Z,15.07
2017-12-01T17:24:02.909Z,10.87
2017-12-01T17:26:31.473Z,20.27
2017-12-01T17:28:59.969Z,20.10
2017-12-01T17:31:28.536Z,20.80
2017-12-01T17:33:57.083Z,22.40
2017-12-01T17:36:25.574Z,23.60
2017-12-01T17:38:54.404Z,19.53
2017-12-01T17:41:22.958Z,21.40
2017-12-01T17:43:51.427Z,16.10
2017-12-01T17:46:21.143Z,19.97
2017-12-01T17:48:50.506Z,20.40
2017-12-01T17:51:19.063Z,20.47
2017-12-01T17:53:47.738Z,22.77
2017-12-01T17:56:16.205Z,27.53
2017-12-01T17:58:44.832Z,19.73
2017-12-01T18:01:13.605Z,19.73
2017-12-01T18:03:42.110Z,14.53
2017-12-01T18:06:10.604Z,8.53
2017-12-01T18:08:39.377Z,18.37
2017-12-01T18:11:08.684Z,21.07
2017-12-01T18:13:37.137Z,7.00
2017-12-01T18:16:06.570Z,21.13
2017-12-01T18:18:35.114Z,20.73
2017-12-01T18:21:03.587Z,9.07
2017-12-01T18:23:32.772Z,7.40
2017-12-01T18:26:01.257Z,16.70
2017-12-01T18:28:29.723Z,18.47
2017-12-01T18:30:59.149Z,16.67
2017-12-01T18:33:27.618Z,18.57
2017-12-01T18:35:56.885Z,15.60
2017-12-01T18:38:25.699Z,17.87
2017-12-01T18:40:54.183Z,6.00
2017-12-01T18:43:23.431Z,11.60
2017-12-01T18:45:51.952Z,12.43
2017-12-01T18:48:21.672Z,19.33
2017-12-01T18:50:50.914Z,19.77
2017-12-01T18:53:19.567Z,19.13
2017-12-01T18:55:48.046Z,19.13
2017-12-01T18:58:16.521Z,18.80
2017-12-01T19:00:45.816Z,12.30
2017-12-01T19:03:14.357Z,11.13
2017-12-01T19:05:42.839Z,5.17
2017-12-01T19:08:11.669Z,15.67
2017-12-01T19:10:40.925Z,13.83
2017-12-01T19:13:09.774Z,17.80
2017-12-01T19:15:38.456Z,20.93
2017-12-01T19:18:06.926Z,20.10
2017-12-01T19:20:36.288Z,16.33
2017-12-01T19:23:05.021Z,20.47
2017-12-01T19:25:33.599Z,19.10
2017-12-01T19:28:02.804Z,17.30
2017-12-01T19:30:31.652Z,18.47
2017-12-01T19:33:00.156Z,18.10
2017-12-01T19:35:29.431Z,9.47
2017-12-01T19:37:58.214Z,23.73
2017-12-01T19:40:27.362Z,20.63
2017-12-01T19:42:55.826Z,22.30
2017-12-01T19:45:25.152Z,17.90
2017-12-01T19:47:54.382Z,20.57
2017-12-01T19:50:23.225Z,18.60
2017-12-01T19:52:51.815Z,18.17
2017-12-01T19:55:20.278Z,20.83
2017-12-01T19:57:49.526Z,17.83
2017-12-01T20:00:18.968Z,17.23
2017-12-01T20:02:47.796Z,19.53
2017-12-01T20:05:16.249Z,24.17
2017-12-01T20:07:46.031Z,24.00
2017-12-01T20:10:14.509Z,18.97
2017-12-01T20:12:43.028Z,17.70
2017-12-01T20:15:12.342Z,22.87
2017-12-01T20:17:40.888Z,19.40
2017-12-01T20:20:09.368Z,21.90
2017-12-01T20:22:37.882Z,25.90
2017-12-01T20:25:06.360Z,28.57
2017-12-01T20:27:34.887Z,27.73
2017-12-01T20:30:03.498Z,29.87
2017-12-01T20:32:32.041Z,35.40
2017-12-01T20:35:00.550Z,24.70
2017-12-01T20:37:29.251Z,27.87
2017-12-01T20:39:57.761Z,23.73
2017-12-01T20:42:27.073Z,25.17
2017-12-01T20:44:55.645Z,24.30
2017-12-01T20:47:24.123Z,27.07
2017-12-01T20:49:53.316Z,23.80
2017-12-01T20:52:23.042Z,20.93
2017-12-01T20:54:51.475Z,24.40
2017-12-01T20:57:19.979Z,25.27
2017-12-01T20:59:48.706Z,25.20
2017-12-01T21:02:17.959Z,26.60
2017-12-01T21:04:47.234Z,27.07
2017-12-01T21:07:15.999Z,23.33
2017-12-01T21:09:44.505Z,22.73
2017-12-01T21:12:12.956Z,30.10
2017-12-01T21:14:41.634Z,28.77
2017-12-01T21:17:10.212Z,27.87
2017-12-01T21:19:38.688Z,29.90
2017-12-01T21:22:07.480Z,27.10
2017-12-01T21:24:35.956Z,27.97
2017-12-01T21:27:04.475Z,28.27
2017-12-01T21:29:33.202Z,22.73
2017-12-01T21:32:02.434Z,36.17
2017-12-01T21:34:30.926Z,31.57
2017-12-01T21:37:00.078Z,28.43
2017-12-01T21:39:29.352Z,23.97
2017-12-01T21:41:58.164Z,28.20
2017-12-01T21:44:27.485Z,25.93
2017-12-01T21:46:55.948Z,28.37
2017-12-01T21:49:25.119Z,24.50
2017-12-01T21:51:54.520Z,22.43
2017-12-01T21:54:23.151Z,23.80
2017-12-01T21:56:51.602Z,24.73
2017-12-01T21:59:20.102Z,21.53
2017-12-01T22:01:49.298Z,19.87
2017-12-01T22:04:18.492Z,22.47
2017-12-01T22:06:48.108Z,18.93
2017-12-01T22:09:17.357Z,20.87
2017-12-01T22:11:45.764Z,19.77
2017-12-01T22:14:14.392Z,18.87
2017-12-01T22:16:42.890Z,21.60
2017-12-01T22:19:11.351Z,23.67
2017-12-01T22:21:39.984Z,22.60
2017-12-01T22:24:08.443Z,21.63
2017-12-01T22:26:36.845Z,19.97
2017-12-01T22:29:05.558Z,24.53
2017-12-01T22:31:35.065Z,26.20
2017-12-01T22:34:04.305Z,27.40
2017-12-01T22:36:33.168Z,18.67
2017-12-01T22:39:01.633Z,20.33
2017-12-01T22:41:30.857Z,24.30
2017-12-01T22:43:59.922Z,20.97
2017-12-01T22:46:29.140Z,23.10
2017-12-01T22:48:57.650Z,19.97
2017-12-01T22:51:26.147Z,21.70
2017-12-01T22:53:54.817Z,21.37
2017-12-01T22:56:23.624Z,20.83
2017-12-01T22:58:52.126Z,22.70
2017-12-01T23:01:20.584Z,23.87
2017-12-01T23:03:49.044Z,18.90
2017-12-01T23:06:17.993Z,24.87
2017-12-01T23:08:47.255Z,22.70
2017-12-01T23:11:15.783Z,24.20
2017-12-01T23:13:44.408Z,22.37
2017-12-01T23:16:12.901Z,20.40
2017-12-01T23:18:41.320Z,15.80
2017-12-01T23:21:10.940Z,18.73
2017-12-01T23:23:39.360Z,19.50
2017-12-01T23:26:07.806Z,18.37
2017-12-01T23:28:36.315Z,17.63
2017-12-01T23:31:04.766Z,17.33
2017-12-01T23:33:33.312Z,20.57
2017-12-01T23:36:02.034Z,18.20
2017-12-01T23:38:30.460Z,16.30
2017-12-01T23:40:58.888Z,17.23
2017-12-01T23:43:27.379Z,18.50
2017-12-01T23:45:55.965Z,19.03
2017-12-01T23:48:24.437Z,19.60
2017-12-01T23:50:53.932Z,18.37
2017-12-01T23:53:23.136Z,20.77
2017-12-01T23:55:52.381Z,19.37
2017-12-01T23:58:22.136Z,18.10
